Huvudsida
METAR-TAF:

METAR-TAF

Flygplatser :

Tromsø flygplats

Tromsø, Norge

latitud: 69-41N, longitud: 018-55E, höjd: 1 m

Aktuellt väderrapport

Denna rapport gjordes för 12 minuter sedan, klockan 13:50 UTC
Vind 8 kt från nordost
Temperatur 15°C
Fuktighet 63%
Tryck 992 hPa
Sikt 10 km eller mer
Spridda moln på en höjd av 7400 ft
Brutna moln på en höjd av 11000 ft

METAR: ENTC 191350Z 05008KT 9999 SCT074 BKN110 15/08 Q0992 NOSIG RMK WIND 2600FT 03007KT

Tid: 16:02 (14:02 UTC)

Väderprognos

Prognos gäller från 19 kl. 12 UTC till 20 kl. 12 UTC
Vind 8 kt från nordost
Sikt 10 km eller mer
Få moln på en höjd av 3000 ft
Brutna moln på en höjd av 5000 ft
Sannolikhet 40%
från 19 kl. 21 UTC till 20 kl. 06 UTC
Sikt: 4000 m
Brutna moln på en höjd av 800 ft
regn, duggregn

TAF: ENTC 1912/2012 04008KT 9999 FEW030 BKN050 PROB40 1921/2006 4000 RADZ BKN008

Aktuella väderrapporter och prognoser från 4000 flygplatser (METAR- och TAF-rapporter).

De tillgängliga stationerna syns som gula och röda prickar på kartan.

För musen över prickarna för att se namnen på stationerna.

Klicka sedan för att få väderrapporter och prognoser.

För att ändra kartan: Klicka på de gröna knapparna med ett svart kors på för att zooma in; den gröna knappen med ett streck på för att zooma ut; eller på de gröna pilarna för angränsande kartor.


METAR-TAF: